Terminal Aerodrome Forecast
Issued by NWS

Home | Current Version | Previous Version | Text Only | Print | Product List | Glossary On
Versions: 1 2 3 4 5 6 7 8 9 10 11 12 13 14 15 16 17
000
FTUS42 KMLB 011727
TAFISM
TAF
KISM 011727Z 0118/0218 13005KT P6SM FEW030 FEW130 SCT250
     FM012100 12005KT P6SM VCTS SCT040CB SCT250
     FM020000 06004KT P6SM VCSH SCT040 SCT060 BKN250
     FM020400 VRB03KT P6SM FEW080 BKN250
     FM021400 05006KT P6SM FEW030 SCT080 BKN250=

USA.gov is the U.S. government's official web portal to all federal, state and local government web resources and services.